sensor_id;sensor_type;location;lat;lon;timestamp;temperature;humidity
4002;DHT22;2015;48.670;9.060;2023-01-26T00:01:45;1.10;99.90
4002;DHT22;2015;48.670;9.060;2023-01-26T00:04:17;1.10;99.90
4002;DHT22;2015;48.670;9.060;2023-01-26T00:06:48;1.10;99.90
4002;DHT22;2015;48.670;9.060;2023-01-26T00:09:21;1.10;99.90
4002;DHT22;2015;48.670;9.060;2023-01-26T00:11:53;1.00;99.90
4002;DHT22;2015;48.670;9.060;2023-01-26T00:14:24;1.00;99.90
4002;DHT22;2015;48.670;9.060;2023-01-26T00:16:56;1.00;99.90
4002;DHT22;2015;48.670;9.060;2023-01-26T00:19:28;1.00;99.90
4002;DHT22;2015;48.670;9.060;2023-01-26T00:21:59;1.00;99.90
4002;DHT22;2015;48.670;9.060;2023-01-26T00:24:31;1.00;99.90
4002;DHT22;2015;48.670;9.060;2023-01-26T00:27:03;1.00;99.90
4002;DHT22;2015;48.670;9.060;2023-01-26T00:29:35;1.00;99.90
4002;DHT22;2015;48.670;9.060;2023-01-26T00:32:06;1.10;99.90
4002;DHT22;2015;48.670;9.060;2023-01-26T00:34:38;1.00;99.90
4002;DHT22;2015;48.670;9.060;2023-01-26T00:37:10;1.10;99.90
4002;DHT22;2015;48.670;9.060;2023-01-26T00:39:42;1.10;99.90
4002;DHT22;2015;48.670;9.060;2023-01-26T00:42:14;1.00;99.90
4002;DHT22;2015;48.670;9.060;2023-01-26T00:44:46;1.00;99.90
4002;DHT22;2015;48.670;9.060;2023-01-26T00:47:18;1.00;99.90
4002;DHT22;2015;48.670;9.060;2023-01-26T00:49:50;1.00;99.90
4002;DHT22;2015;48.670;9.060;2023-01-26T00:52:22;1.00;99.90
4002;DHT22;2015;48.670;9.060;2023-01-26T00:54:53;1.00;99.90
4002;DHT22;2015;48.670;9.060;2023-01-26T00:57:25;1.00;99.90
4002;DHT22;2015;48.670;9.060;2023-01-26T00:59:57;1.00;99.90
4002;DHT22;2015;48.670;9.060;2023-01-26T01:02:29;0.90;99.90
4002;DHT22;2015;48.670;9.060;2023-01-26T01:05:00;0.90;99.90
4002;DHT22;2015;48.670;9.060;2023-01-26T01:07:32;0.90;99.90
4002;DHT22;2015;48.670;9.060;2023-01-26T01:10:04;0.90;99.90
4002;DHT22;2015;48.670;9.060;2023-01-26T01:12:36;1.00;99.90
4002;DHT22;2015;48.670;9.060;2023-01-26T01:15:08;1.00;99.90
4002;DHT22;2015;48.670;9.060;2023-01-26T01:17:39;1.00;99.90
4002;DHT22;2015;48.670;9.060;2023-01-26T01:20:11;1.00;99.90
4002;DHT22;2015;48.670;9.060;2023-01-26T01:22:43;1.00;99.90
4002;DHT22;2015;48.670;9.060;2023-01-26T01:25:15;1.00;99.90
4002;DHT22;2015;48.670;9.060;2023-01-26T01:27:47;1.00;99.90
4002;DHT22;2015;48.670;9.060;2023-01-26T01:30:19;1.00;99.90
4002;DHT22;2015;48.670;9.060;2023-01-26T01:32:50;1.00;99.90
4002;DHT22;2015;48.670;9.060;2023-01-26T01:35:23;1.00;99.90
4002;DHT22;2015;48.670;9.060;2023-01-26T01:37:55;1.00;99.90
4002;DHT22;2015;48.670;9.060;2023-01-26T01:40:27;1.00;99.90
4002;DHT22;2015;48.670;9.060;2023-01-26T01:42:59;1.00;99.90
4002;DHT22;2015;48.670;9.060;2023-01-26T01:45:50;1.00;99.90
4002;DHT22;2015;48.670;9.060;2023-01-26T01:51:19;1.00;99.90
4002;DHT22;2015;48.670;9.060;2023-01-26T01:53:52;1.10;99.90
4002;DHT22;2015;48.670;9.060;2023-01-26T01:56:27;1.10;99.90
4002;DHT22;2015;48.670;9.060;2023-01-26T01:59:02;1.10;99.90
4002;DHT22;2015;48.670;9.060;2023-01-26T02:01:35;1.10;99.90
4002;DHT22;2015;48.670;9.060;2023-01-26T02:04:07;1.10;99.90
4002;DHT22;2015;48.670;9.060;2023-01-26T02:06:51;1.00;99.90
4002;DHT22;2015;48.670;9.060;2023-01-26T02:09:32;1.00;99.90
4002;DHT22;2015;48.670;9.060;2023-01-26T02:12:26;1.00;99.90
4002;DHT22;2015;48.670;9.060;2023-01-26T02:15:00;0.90;99.90
4002;DHT22;2015;48.670;9.060;2023-01-26T02:17:32;0.90;99.90
4002;DHT22;2015;48.670;9.060;2023-01-26T02:28:26;0.90;99.90
4002;DHT22;2015;48.670;9.060;2023-01-26T02:30:58;0.90;99.90
4002;DHT22;2015;48.670;9.060;2023-01-26T02:33:32;0.90;99.90
4002;DHT22;2015;48.670;9.060;2023-01-26T02:36:05;0.90;99.90
4002;DHT22;2015;48.670;9.060;2023-01-26T02:38:42;1.00;99.90
4002;DHT22;2015;48.670;9.060;2023-01-26T02:41:16;0.90;99.90
4002;DHT22;2015;48.670;9.060;2023-01-26T02:44:10;0.90;99.90
4002;DHT22;2015;48.670;9.060;2023-01-26T02:46:42;0.90;99.90
4002;DHT22;2015;48.670;9.060;2023-01-26T02:49:14;0.90;99.90
4002;DHT22;2015;48.670;9.060;2023-01-26T02:52:05;1.00;99.90
4002;DHT22;2015;48.670;9.060;2023-01-26T02:54:37;1.00;99.90
4002;DHT22;2015;48.670;9.060;2023-01-26T02:57:27;0.90;99.90
4002;DHT22;2015;48.670;9.060;2023-01-26T02:59:59;0.90;99.90
4002;DHT22;2015;48.670;9.060;2023-01-26T03:02:31;0.90;99.90
4002;DHT22;2015;48.670;9.060;2023-01-26T03:05:03;0.90;99.90
4002;DHT22;2015;48.670;9.060;2023-01-26T03:07:35;0.90;99.90
4002;DHT22;2015;48.670;9.060;2023-01-26T03:10:07;1.00;99.90
4002;DHT22;2015;48.670;9.060;2023-01-26T03:12:40;1.00;99.90
4002;DHT22;2015;48.670;9.060;2023-01-26T03:15:12;0.90;99.90
4002;DHT22;2015;48.670;9.060;2023-01-26T03:18:04;0.90;99.90
4002;DHT22;2015;48.670;9.060;2023-01-26T03:20:58;0.90;99.90
4002;DHT22;2015;48.670;9.060;2023-01-26T03:23:49;1.00;99.90
4002;DHT22;2015;48.670;9.060;2023-01-26T03:26:39;1.00;99.90
4002;DHT22;2015;48.670;9.060;2023-01-26T03:29:30;1.00;99.90
4002;DHT22;2015;48.670;9.060;2023-01-26T03:32:02;0.90;99.90
4002;DHT22;2015;48.670;9.060;2023-01-26T03:34:34;0.90;99.90
4002;DHT22;2015;48.670;9.060;2023-01-26T03:37:06;0.90;99.90
4002;DHT22;2015;48.670;9.060;2023-01-26T03:39:38;0.90;99.90
4002;DHT22;2015;48.670;9.060;2023-01-26T03:42:28;0.90;99.90
4002;DHT22;2015;48.670;9.060;2023-01-26T03:45:19;0.90;99.90
4002;DHT22;2015;48.670;9.060;2023-01-26T03:48:10;0.90;99.90
4002;DHT22;2015;48.670;9.060;2023-01-26T03:51:01;0.90;99.90
4002;DHT22;2015;48.670;9.060;2023-01-26T03:53:51;0.90;99.90
4002;DHT22;2015;48.670;9.060;2023-01-26T03:56:42;0.90;99.90
4002;DHT22;2015;48.670;9.060;2023-01-26T03:59:15;0.90;99.90
4002;DHT22;2015;48.670;9.060;2023-01-26T04:01:47;0.80;99.90
4002;DHT22;2015;48.670;9.060;2023-01-26T04:04:37;0.70;99.90
4002;DHT22;2015;48.670;9.060;2023-01-26T04:07:27;0.80;99.90
4002;DHT22;2015;48.670;9.060;2023-01-26T04:10:18;0.80;99.90
4002;DHT22;2015;48.670;9.060;2023-01-26T04:12:50;0.80;99.90
4002;DHT22;2015;48.670;9.060;2023-01-26T04:15:40;0.90;99.90
4002;DHT22;2015;48.670;9.060;2023-01-26T04:18:32;0.80;99.90
4002;DHT22;2015;48.670;9.060;2023-01-26T04:21:22;0.80;99.90
4002;DHT22;2015;48.670;9.060;2023-01-26T04:23:59;0.90;99.90
4002;DHT22;2015;48.670;9.060;2023-01-26T04:26:31;0.90;99.90
4002;DHT22;2015;48.670;9.060;2023-01-26T04:29:11;0.90;99.90
4002;DHT22;2015;48.670;9.060;2023-01-26T04:31:43;0.90;99.90
4002;DHT22;2015;48.670;9.060;2023-01-26T04:34:15;0.90;99.90
4002;DHT22;2015;48.670;9.060;2023-01-26T04:36:47;0.80;99.90
4002;DHT22;2015;48.670;9.060;2023-01-26T04:39:19;0.80;99.90
4002;DHT22;2015;48.670;9.060;2023-01-26T04:41:51;0.80;99.90
4002;DHT22;2015;48.670;9.060;2023-01-26T04:44:22;0.80;99.90
4002;DHT22;2015;48.670;9.060;2023-01-26T04:46:54;0.80;99.90
4002;DHT22;2015;48.670;9.060;2023-01-26T04:49:26;0.70;99.90
4002;DHT22;2015;48.670;9.060;2023-01-26T04:51:58;0.80;99.90
4002;DHT22;2015;48.670;9.060;2023-01-26T04:54:29;0.70;99.90
4002;DHT22;2015;48.670;9.060;2023-01-26T04:57:01;0.70;99.90
4002;DHT22;2015;48.670;9.060;2023-01-26T04:59:33;0.60;99.90
4002;DHT22;2015;48.670;9.060;2023-01-26T05:02:05;0.70;99.90
4002;DHT22;2015;48.670;9.060;2023-01-26T05:04:37;0.70;99.90
4002;DHT22;2015;48.670;9.060;2023-01-26T05:07:09;0.80;99.90
4002;DHT22;2015;48.670;9.060;2023-01-26T05:09:40;0.80;99.90
4002;DHT22;2015;48.670;9.060;2023-01-26T05:12:12;0.80;99.90
4002;DHT22;2015;48.670;9.060;2023-01-26T05:15:03;0.70;99.90
4002;DHT22;2015;48.670;9.060;2023-01-26T05:17:35;0.70;99.90
4002;DHT22;2015;48.670;9.060;2023-01-26T05:20:07;0.70;99.90
4002;DHT22;2015;48.670;9.060;2023-01-26T05:22:40;0.70;99.90
4002;DHT22;2015;48.670;9.060;2023-01-26T05:25:12;0.70;99.90
4002;DHT22;2015;48.670;9.060;2023-01-26T05:27:43;0.60;99.90
4002;DHT22;2015;48.670;9.060;2023-01-26T05:30:15;0.60;99.90
4002;DHT22;2015;48.670;9.060;2023-01-26T05:32:48;0.60;99.90
4002;DHT22;2015;48.670;9.060;2023-01-26T05:35:19;0.60;99.90
4002;DHT22;2015;48.670;9.060;2023-01-26T05:37:51;0.60;99.90
4002;DHT22;2015;48.670;9.060;2023-01-26T05:40:23;0.60;99.90
4002;DHT22;2015;48.670;9.060;2023-01-26T05:42:56;0.60;99.90
4002;DHT22;2015;48.670;9.060;2023-01-26T05:45:28;0.60;99.90
4002;DHT22;2015;48.670;9.060;2023-01-26T05:48:00;0.60;99.90
4002;DHT22;2015;48.670;9.060;2023-01-26T05:50:32;0.60;99.90
4002;DHT22;2015;48.670;9.060;2023-01-26T05:53:04;0.60;99.90
4002;DHT22;2015;48.670;9.060;2023-01-26T05:55:36;0.60;99.90
4002;DHT22;2015;48.670;9.060;2023-01-26T05:58:08;0.60;99.90
4002;DHT22;2015;48.670;9.060;2023-01-26T06:00:40;0.50;99.90
4002;DHT22;2015;48.670;9.060;2023-01-26T06:03:11;0.60;99.90
4002;DHT22;2015;48.670;9.060;2023-01-26T06:05:43;0.60;99.90
4002;DHT22;2015;48.670;9.060;2023-01-26T06:08:15;0.60;99.90
4002;DHT22;2015;48.670;9.060;2023-01-26T06:10:46;0.60;99.90
4002;DHT22;2015;48.670;9.060;2023-01-26T06:13:18;0.70;99.90
4002;DHT22;2015;48.670;9.060;2023-01-26T06:15:50;0.60;99.90
4002;DHT22;2015;48.670;9.060;2023-01-26T06:18:22;0.50;99.90
4002;DHT22;2015;48.670;9.060;2023-01-26T06:20:58;0.50;99.90
4002;DHT22;2015;48.670;9.060;2023-01-26T06:23:30;0.50;99.90
4002;DHT22;2015;48.670;9.060;2023-01-26T06:26:02;0.50;99.90
4002;DHT22;2015;48.670;9.060;2023-01-26T06:28:34;0.50;99.90
4002;DHT22;2015;48.670;9.060;2023-01-26T06:31:07;0.40;99.90
4002;DHT22;2015;48.670;9.060;2023-01-26T06:33:39;0.50;99.90
4002;DHT22;2015;48.670;9.060;2023-01-26T06:36:13;0.50;99.90
4002;DHT22;2015;48.670;9.060;2023-01-26T06:38:47;0.50;99.90
4002;DHT22;2015;48.670;9.060;2023-01-26T06:41:18;0.50;99.90
4002;DHT22;2015;48.670;9.060;2023-01-26T06:43:50;0.50;99.90
4002;DHT22;2015;48.670;9.060;2023-01-26T06:46:22;0.60;99.90
4002;DHT22;2015;48.670;9.060;2023-01-26T06:48:54;0.60;99.90
4002;DHT22;2015;48.670;9.060;2023-01-26T06:54:11;0.60;99.90
4002;DHT22;2015;48.670;9.060;2023-01-26T06:56:43;0.60;99.90
4002;DHT22;2015;48.670;9.060;2023-01-26T06:59:15;0.50;99.90
4002;DHT22;2015;48.670;9.060;2023-01-26T07:01:47;0.50;99.90
4002;DHT22;2015;48.670;9.060;2023-01-26T07:04:19;0.60;99.90
4002;DHT22;2015;48.670;9.060;2023-01-26T07:06:51;0.50;99.90
4002;DHT22;2015;48.670;9.060;2023-01-26T07:09:23;0.50;99.90
4002;DHT22;2015;48.670;9.060;2023-01-26T07:11:55;0.50;99.90
4002;DHT22;2015;48.670;9.060;2023-01-26T07:14:26;0.40;99.90
4002;DHT22;2015;48.670;9.060;2023-01-26T07:16:58;0.40;99.90
4002;DHT22;2015;48.670;9.060;2023-01-26T07:19:30;0.40;99.90
4002;DHT22;2015;48.670;9.060;2023-01-26T07:22:03;0.30;99.90
4002;DHT22;2015;48.670;9.060;2023-01-26T07:24:35;0.30;99.90
4002;DHT22;2015;48.670;9.060;2023-01-26T07:27:07;0.30;99.90
4002;DHT22;2015;48.670;9.060;2023-01-26T07:29:39;0.20;99.90
4002;DHT22;2015;48.670;9.060;2023-01-26T07:32:11;0.20;99.90
4002;DHT22;2015;48.670;9.060;2023-01-26T07:34:43;0.20;99.90
4002;DHT22;2015;48.670;9.060;2023-01-26T07:37:15;0.20;99.90
4002;DHT22;2015;48.670;9.060;2023-01-26T07:39:46;0.20;99.90
4002;DHT22;2015;48.670;9.060;2023-01-26T07:42:19;0.30;99.90
4002;DHT22;2015;48.670;9.060;2023-01-26T07:44:51;0.20;99.90
4002;DHT22;2015;48.670;9.060;2023-01-26T07:47:23;0.30;99.90
4002;DHT22;2015;48.670;9.060;2023-01-26T07:49:55;0.30;99.90
4002;DHT22;2015;48.670;9.060;2023-01-26T07:52:26;0.30;99.90
4002;DHT22;2015;48.670;9.060;2023-01-26T07:54:58;0.20;99.90
4002;DHT22;2015;48.670;9.060;2023-01-26T07:57:30;0.20;99.90
4002;DHT22;2015;48.670;9.060;2023-01-26T08:00:03;0.20;99.90
4002;DHT22;2015;48.670;9.060;2023-01-26T08:02:35;0.20;99.90
4002;DHT22;2015;48.670;9.060;2023-01-26T08:05:07;0.20;99.90
4002;DHT22;2015;48.670;9.060;2023-01-26T08:07:39;0.20;99.90
4002;DHT22;2015;48.670;9.060;2023-01-26T08:10:11;0.20;99.90
4002;DHT22;2015;48.670;9.060;2023-01-26T08:12:44;0.30;99.90
4002;DHT22;2015;48.670;9.060;2023-01-26T08:15:16;0.30;99.90
4002;DHT22;2015;48.670;9.060;2023-01-26T08:17:48;0.30;99.90
4002;DHT22;2015;48.670;9.060;2023-01-26T08:20:20;0.30;99.90
4002;DHT22;2015;48.670;9.060;2023-01-26T08:22:52;0.30;99.90
4002;DHT22;2015;48.670;9.060;2023-01-26T08:25:24;0.30;99.90
4002;DHT22;2015;48.670;9.060;2023-01-26T08:27:56;0.30;99.90
4002;DHT22;2015;48.670;9.060;2023-01-26T08:30:29;0.30;99.90
4002;DHT22;2015;48.670;9.060;2023-01-26T08:33:02;0.40;99.90
4002;DHT22;2015;48.670;9.060;2023-01-26T08:35:34;0.30;99.90
4002;DHT22;2015;48.670;9.060;2023-01-26T08:38:06;0.30;99.90
4002;DHT22;2015;48.670;9.060;2023-01-26T08:40:37;0.20;99.90
4002;DHT22;2015;48.670;9.060;2023-01-26T08:43:09;0.20;99.90
4002;DHT22;2015;48.670;9.060;2023-01-26T08:45:41;0.20;99.90
4002;DHT22;2015;48.670;9.060;2023-01-26T08:48:13;0.20;99.90
4002;DHT22;2015;48.670;9.060;2023-01-26T08:50:45;0.20;99.90
4002;DHT22;2015;48.670;9.060;2023-01-26T08:53:17;0.30;99.90
4002;DHT22;2015;48.670;9.060;2023-01-26T08:55:49;0.30;99.90
4002;DHT22;2015;48.670;9.060;2023-01-26T08:58:21;0.30;99.90
4002;DHT22;2015;48.670;9.060;2023-01-26T09:00:52;0.30;99.90
4002;DHT22;2015;48.670;9.060;2023-01-26T09:03:25;0.30;99.90
4002;DHT22;2015;48.670;9.060;2023-01-26T09:05:59;0.30;99.90
4002;DHT22;2015;48.670;9.060;2023-01-26T09:08:31;0.30;99.90
4002;DHT22;2015;48.670;9.060;2023-01-26T09:11:06;0.30;99.90
4002;DHT22;2015;48.670;9.060;2023-01-26T09:13:38;0.40;99.90
4002;DHT22;2015;48.670;9.060;2023-01-26T09:16:18;0.40;99.90
4002;DHT22;2015;48.670;9.060;2023-01-26T09:18:52;0.40;99.90
4002;DHT22;2015;48.670;9.060;2023-01-26T09:21:24;0.30;99.90
4002;DHT22;2015;48.670;9.060;2023-01-26T09:23:56;0.30;99.90
4002;DHT22;2015;48.670;9.060;2023-01-26T09:26:28;0.30;99.90
4002;DHT22;2015;48.670;9.060;2023-01-26T09:29:01;0.30;99.90
4002;DHT22;2015;48.670;9.060;2023-01-26T09:31:32;0.30;99.90
4002;DHT22;2015;48.670;9.060;2023-01-26T09:34:05;0.40;99.90
4002;DHT22;2015;48.670;9.060;2023-01-26T09:36:36;0.40;99.90
4002;DHT22;2015;48.670;9.060;2023-01-26T09:39:11;0.40;99.90
4002;DHT22;2015;48.670;9.060;2023-01-26T09:41:48;0.40;99.90
4002;DHT22;2015;48.670;9.060;2023-01-26T09:44:24;0.30;99.90
4002;DHT22;2015;48.670;9.060;2023-01-26T09:47:01;0.30;99.90
4002;DHT22;2015;48.670;9.060;2023-01-26T09:50:07;0.30;99.90
4002;DHT22;2015;48.670;9.060;2023-01-26T09:53:03;0.30;99.90
4002;DHT22;2015;48.670;9.060;2023-01-26T09:55:39;0.30;99.90
4002;DHT22;2015;48.670;9.060;2023-01-26T09:58:34;0.30;99.90
4002;DHT22;2015;48.670;9.060;2023-01-26T10:01:25;0.30;99.90
4002;DHT22;2015;48.670;9.060;2023-01-26T10:04:38;0.30;99.90
4002;DHT22;2015;48.670;9.060;2023-01-26T10:07:12;0.40;99.90
4002;DHT22;2015;48.670;9.060;2023-01-26T10:09:49;0.30;99.90
4002;DHT22;2015;48.670;9.060;2023-01-26T10:12:30;0.30;99.90
4002;DHT22;2015;48.670;9.060;2023-01-26T10:17:53;0.20;99.90
4002;DHT22;2015;48.670;9.060;2023-01-26T10:20:38;0.10;99.90
4002;DHT22;2015;48.670;9.060;2023-01-26T10:23:20;0.10;99.90
4002;DHT22;2015;48.670;9.060;2023-01-26T10:25:55;0.10;99.90
4002;DHT22;2015;48.670;9.060;2023-01-26T10:28:30;0.10;99.90
4002;DHT22;2015;48.670;9.060;2023-01-26T10:31:04;0.20;99.90
4002;DHT22;2015;48.670;9.060;2023-01-26T10:33:39;0.30;99.90
4002;DHT22;2015;48.670;9.060;2023-01-26T10:36:14;0.30;99.90
4002;DHT22;2015;48.670;9.060;2023-01-26T10:38:50;0.30;99.90
4002;DHT22;2015;48.670;9.060;2023-01-26T10:41:24;0.30;99.90
4002;DHT22;2015;48.670;9.060;2023-01-26T10:46:41;0.30;99.90
4002;DHT22;2015;48.670;9.060;2023-01-26T10:49:16;0.30;99.90
4002;DHT22;2015;48.670;9.060;2023-01-26T10:52:15;0.20;99.90
4002;DHT22;2015;48.670;9.060;2023-01-26T10:54:53;0.20;99.90
4002;DHT22;2015;48.670;9.060;2023-01-26T10:57:41;0.20;99.90
4002;DHT22;2015;48.670;9.060;2023-01-26T11:00:28;0.20;99.90
4002;DHT22;2015;48.670;9.060;2023-01-26T11:05:44;0.30;99.90
4002;DHT22;2015;48.670;9.060;2023-01-26T11:08:36;0.30;99.90
4002;DHT22;2015;48.670;9.060;2023-01-26T11:11:24;0.20;99.90
4002;DHT22;2015;48.670;9.060;2023-01-26T11:14:14;0.10;99.90
4002;DHT22;2015;48.670;9.060;2023-01-26T11:17:20;0.00;99.90
4002;DHT22;2015;48.670;9.060;2023-01-26T11:20:34;0.00;99.90
4002;DHT22;2015;48.670;9.060;2023-01-26T11:26:09;-0.10;99.90
4002;DHT22;2015;48.670;9.060;2023-01-26T11:31:39;0.10;99.90
4002;DHT22;2015;48.670;9.060;2023-01-26T11:37:39;0.00;99.90
4002;DHT22;2015;48.670;9.060;2023-01-26T11:40:34;0.10;99.90
4002;DHT22;2015;48.670;9.060;2023-01-26T11:43:45;0.10;99.90
4002;DHT22;2015;48.670;9.060;2023-01-26T11:55:45;0.00;99.90
4002;DHT22;2015;48.670;9.060;2023-01-26T11:58:25;0.00;99.90
4002;DHT22;2015;48.670;9.060;2023-01-26T12:01:00;-0.10;99.90
4002;DHT22;2015;48.670;9.060;2023-01-26T12:06:41;0.00;99.90
4002;DHT22;2015;48.670;9.060;2023-01-26T12:12:18;0.00;99.90
4002;DHT22;2015;48.670;9.060;2023-01-26T12:15:01;0.00;99.90
4002;DHT22;2015;48.670;9.060;2023-01-26T12:20:52;0.00;99.90
4002;DHT22;2015;48.670;9.060;2023-01-26T12:23:30;0.00;99.90
4002;DHT22;2015;48.670;9.060;2023-01-26T12:26:14;-0.10;99.90
4002;DHT22;2015;48.670;9.060;2023-01-26T12:29:05;-0.10;99.90
4002;DHT22;2015;48.670;9.060;2023-01-26T12:34:24;-0.10;99.90
4002;DHT22;2015;48.670;9.060;2023-01-26T12:40:11;0.10;99.90
4002;DHT22;2015;48.670;9.060;2023-01-26T12:43:09;0.00;99.90
4002;DHT22;2015;48.670;9.060;2023-01-26T12:45:48;-0.10;99.90
4002;DHT22;2015;48.670;9.060;2023-01-26T12:51:15;0.00;99.90
4002;DHT22;2015;48.670;9.060;2023-01-26T12:56:46;0.00;99.90
4002;DHT22;2015;48.670;9.060;2023-01-26T12:59:27;0.00;99.90
4002;DHT22;2015;48.670;9.060;2023-01-26T13:02:24;-0.10;99.90
4002;DHT22;2015;48.670;9.060;2023-01-26T13:04:58;-0.10;99.90
4002;DHT22;2015;48.670;9.060;2023-01-26T13:07:36;-0.10;99.90
4002;DHT22;2015;48.670;9.060;2023-01-26T13:10:20;-0.10;99.90
4002;DHT22;2015;48.670;9.060;2023-01-26T13:24:56;-0.10;99.90
4002;DHT22;2015;48.670;9.060;2023-01-26T13:27:44;-0.10;99.90
4002;DHT22;2015;48.670;9.060;2023-01-26T13:33:08;0.00;99.90
4002;DHT22;2015;48.670;9.060;2023-01-26T13:35:41;0.00;99.90
4002;DHT22;2015;48.670;9.060;2023-01-26T13:38:29;0.00;99.90
4002;DHT22;2015;48.670;9.060;2023-01-26T13:41:16;-0.10;99.90
4002;DHT22;2015;48.670;9.060;2023-01-26T13:44:05;-0.10;99.90
4002;DHT22;2015;48.670;9.060;2023-01-26T13:46:43;-0.10;99.90
4002;DHT22;2015;48.670;9.060;2023-01-26T13:49:24;-0.10;99.90
4002;DHT22;2015;48.670;9.060;2023-01-26T13:51:56;-0.10;99.90
4002;DHT22;2015;48.670;9.060;2023-01-26T13:54:29;-0.10;99.90
4002;DHT22;2015;48.670;9.060;2023-01-26T13:57:03;-0.10;99.90
4002;DHT22;2015;48.670;9.060;2023-01-26T13:59:51;-0.10;99.90
4002;DHT22;2015;48.670;9.060;2023-01-26T14:04:57;0.00;99.90
4002;DHT22;2015;48.670;9.060;2023-01-26T14:07:39;0.00;99.90
4002;DHT22;2015;48.670;9.060;2023-01-26T14:10:17;-0.10;99.90
4002;DHT22;2015;48.670;9.060;2023-01-26T14:12:51;0.00;99.90
4002;DHT22;2015;48.670;9.060;2023-01-26T14:15:29;0.00;99.90
4002;DHT22;2015;48.670;9.060;2023-01-26T14:18:03;-0.10;99.90
4002;DHT22;2015;48.670;9.060;2023-01-26T14:20:39;-0.10;99.90
4002;DHT22;2015;48.670;9.060;2023-01-26T14:26:17;0.00;99.90
4002;DHT22;2015;48.670;9.060;2023-01-26T14:28:50;0.00;99.90
4002;DHT22;2015;48.670;9.060;2023-01-26T14:31:23;0.00;99.90
4002;DHT22;2015;48.670;9.060;2023-01-26T14:33:57;0.00;99.90
4002;DHT22;2015;48.670;9.060;2023-01-26T14:36:30;0.00;99.90
4002;DHT22;2015;48.670;9.060;2023-01-26T14:39:16;0.00;99.90
4002;DHT22;2015;48.670;9.060;2023-01-26T14:41:48;-0.10;99.90
4002;DHT22;2015;48.670;9.060;2023-01-26T14:44:20;-0.10;99.90
4002;DHT22;2015;48.670;9.060;2023-01-26T14:52:25;-0.20;99.90
4002;DHT22;2015;48.670;9.060;2023-01-26T14:55:06;-0.30;99.90
4002;DHT22;2015;48.670;9.060;2023-01-26T14:57:39;-0.30;99.90
4002;DHT22;2015;48.670;9.060;2023-01-26T15:00:27;-0.30;99.90
4002;DHT22;2015;48.670;9.060;2023-01-26T15:03:04;-0.30;99.90
4002;DHT22;2015;48.670;9.060;2023-01-26T15:05:38;-0.30;99.90
4002;DHT22;2015;48.670;9.060;2023-01-26T15:08:21;-0.20;99.90
4002;DHT22;2015;48.670;9.060;2023-01-26T15:10:56;-0.20;99.90
4002;DHT22;2015;48.670;9.060;2023-01-26T15:13:51;-0.10;99.90
4002;DHT22;2015;48.670;9.060;2023-01-26T15:16:24;-0.20;99.90
4002;DHT22;2015;48.670;9.060;2023-01-26T15:18:59;-0.20;99.90
4002;DHT22;2015;48.670;9.060;2023-01-26T15:21:38;-0.20;99.90
4002;DHT22;2015;48.670;9.060;2023-01-26T15:24:13;-0.20;99.90
4002;DHT22;2015;48.670;9.060;2023-01-26T15:26:45;-0.20;99.90
4002;DHT22;2015;48.670;9.060;2023-01-26T15:29:29;-0.30;99.90
4002;DHT22;2015;48.670;9.060;2023-01-26T15:32:02;-0.30;99.90
4002;DHT22;2015;48.670;9.060;2023-01-26T15:34:38;-0.30;99.90
4002;DHT22;2015;48.670;9.060;2023-01-26T15:37:31;-0.40;99.90
4002;DHT22;2015;48.670;9.060;2023-01-26T15:40:04;-0.40;99.90
4002;DHT22;2015;48.670;9.060;2023-01-26T15:42:36;-0.40;99.90
4002;DHT22;2015;48.670;9.060;2023-01-26T15:45:20;-0.40;99.90
4002;DHT22;2015;48.670;9.060;2023-01-26T15:47:53;-0.40;99.90
4002;DHT22;2015;48.670;9.060;2023-01-26T15:50:26;-0.40;99.90
4002;DHT22;2015;48.670;9.060;2023-01-26T15:52:59;-0.40;99.90
4002;DHT22;2015;48.670;9.060;2023-01-26T15:55:32;-0.30;99.90
4002;DHT22;2015;48.670;9.060;2023-01-26T15:58:04;-0.30;99.90
4002;DHT22;2015;48.670;9.060;2023-01-26T16:00:36;-0.40;99.90
4002;DHT22;2015;48.670;9.060;2023-01-26T16:03:14;-0.30;99.90
4002;DHT22;2015;48.670;9.060;2023-01-26T16:05:47;-0.30;99.90
4002;DHT22;2015;48.670;9.060;2023-01-26T16:08:19;-0.30;99.90
4002;DHT22;2015;48.670;9.060;2023-01-26T16:10:51;-0.20;99.90
4002;DHT22;2015;48.670;9.060;2023-01-26T16:13:23;-0.20;99.90
4002;DHT22;2015;48.670;9.060;2023-01-26T16:15:54;-0.20;99.90
4002;DHT22;2015;48.670;9.060;2023-01-26T16:18:26;-0.20;99.90
4002;DHT22;2015;48.670;9.060;2023-01-26T16:20:58;-0.30;99.90
4002;DHT22;2015;48.670;9.060;2023-01-26T16:23:30;-0.20;99.90
4002;DHT22;2015;48.670;9.060;2023-01-26T16:26:02;-0.20;99.90
4002;DHT22;2015;48.670;9.060;2023-01-26T16:28:34;-0.20;99.90
4002;DHT22;2015;48.670;9.060;2023-01-26T16:31:17;-0.10;99.90
4002;DHT22;2015;48.670;9.060;2023-01-26T16:33:50;-0.20;99.90
4002;DHT22;2015;48.670;9.060;2023-01-26T16:36:22;-0.20;99.90
4002;DHT22;2015;48.670;9.060;2023-01-26T16:38:54;-0.20;99.90
4002;DHT22;2015;48.670;9.060;2023-01-26T16:41:28;-0.20;99.90
4002;DHT22;2015;48.670;9.060;2023-01-26T16:44:01;-0.10;99.90
4002;DHT22;2015;48.670;9.060;2023-01-26T16:46:33;-0.10;99.90
4002;DHT22;2015;48.670;9.060;2023-01-26T16:49:05;-0.10;99.90
4002;DHT22;2015;48.670;9.060;2023-01-26T16:51:37;-0.10;99.90
4002;DHT22;2015;48.670;9.060;2023-01-26T16:54:12;-0.10;99.90
4002;DHT22;2015;48.670;9.060;2023-01-26T16:56:44;-0.10;99.90
4002;DHT22;2015;48.670;9.060;2023-01-26T16:59:16;-0.10;99.90
4002;DHT22;2015;48.670;9.060;2023-01-26T17:01:48;-0.10;99.90
4002;DHT22;2015;48.670;9.060;2023-01-26T17:04:20;-0.10;99.90
4002;DHT22;2015;48.670;9.060;2023-01-26T17:06:52;-0.20;99.90
4002;DHT22;2015;48.670;9.060;2023-01-26T17:09:23;-0.10;99.90
4002;DHT22;2015;48.670;9.060;2023-01-26T17:11:55;-0.10;99.90
4002;DHT22;2015;48.670;9.060;2023-01-26T17:14:27;-0.10;99.90
4002;DHT22;2015;48.670;9.060;2023-01-26T17:16:58;-0.10;99.90
4002;DHT22;2015;48.670;9.060;2023-01-26T17:19:33;-0.20;99.90
4002;DHT22;2015;48.670;9.060;2023-01-26T17:22:05;-0.20;99.90
4002;DHT22;2015;48.670;9.060;2023-01-26T17:24:37;-0.20;99.90
4002;DHT22;2015;48.670;9.060;2023-01-26T17:27:08;-0.20;99.90
4002;DHT22;2015;48.670;9.060;2023-01-26T17:29:43;-0.30;99.90
4002;DHT22;2015;48.670;9.060;2023-01-26T17:32:16;-0.40;99.90
4002;DHT22;2015;48.670;9.060;2023-01-26T17:34:54;-0.30;99.90
4002;DHT22;2015;48.670;9.060;2023-01-26T17:37:27;-0.30;99.90
4002;DHT22;2015;48.670;9.060;2023-01-26T17:39:59;-0.30;99.90
4002;DHT22;2015;48.670;9.060;2023-01-26T17:42:31;-0.30;99.90
4002;DHT22;2015;48.670;9.060;2023-01-26T17:45:05;-0.30;99.90
4002;DHT22;2015;48.670;9.060;2023-01-26T17:47:38;-0.30;99.90
4002;DHT22;2015;48.670;9.060;2023-01-26T17:50:10;-0.30;99.90
4002;DHT22;2015;48.670;9.060;2023-01-26T17:52:42;-0.30;99.90
4002;DHT22;2015;48.670;9.060;2023-01-26T17:55:13;-0.30;99.90
4002;DHT22;2015;48.670;9.060;2023-01-26T17:57:45;-0.30;99.90
4002;DHT22;2015;48.670;9.060;2023-01-26T18:00:17;-0.30;99.90
4002;DHT22;2015;48.670;9.060;2023-01-26T18:02:49;-0.30;99.90
4002;DHT22;2015;48.670;9.060;2023-01-26T18:05:21;-0.40;99.90
4002;DHT22;2015;48.670;9.060;2023-01-26T18:07:53;-0.30;99.90
4002;DHT22;2015;48.670;9.060;2023-01-26T18:10:25;-0.30;99.90
4002;DHT22;2015;48.670;9.060;2023-01-26T18:12:57;-0.20;99.90
4002;DHT22;2015;48.670;9.060;2023-01-26T18:15:28;-0.30;99.90
4002;DHT22;2015;48.670;9.060;2023-01-26T18:18:00;-0.20;99.90
4002;DHT22;2015;48.670;9.060;2023-01-26T18:20:32;-0.30;99.90
4002;DHT22;2015;48.670;9.060;2023-01-26T18:23:04;-0.30;99.90
4002;DHT22;2015;48.670;9.060;2023-01-26T18:25:35;-0.30;99.90
4002;DHT22;2015;48.670;9.060;2023-01-26T18:28:07;-0.40;99.90
4002;DHT22;2015;48.670;9.060;2023-01-26T18:30:40;-0.40;99.90
4002;DHT22;2015;48.670;9.060;2023-01-26T18:33:12;-0.40;99.90
4002;DHT22;2015;48.670;9.060;2023-01-26T18:35:43;-0.40;99.90